createdAt,value
2022-11-19T00:01:18.154Z,11.90
2022-11-19T00:06:22.677Z,11.93
2022-11-19T00:11:46.966Z,12.33
2022-11-19T00:16:48.909Z,13.73
2022-11-19T00:21:50.911Z,11.00
2022-11-19T00:26:52.649Z,12.13
2022-11-19T00:31:54.387Z,12.37
2022-11-19T00:36:56.408Z,13.17
2022-11-19T00:41:58.335Z,12.07
2022-11-19T00:47:00.097Z,11.53
2022-11-19T00:52:02.227Z,12.03
2022-11-19T00:57:04.089Z,12.67
2022-11-19T01:02:05.874Z,12.23
2022-11-19T01:07:07.812Z,12.27
2022-11-19T01:12:09.748Z,12.77
2022-11-19T01:17:11.664Z,12.73
2022-11-19T01:22:13.560Z,12.93
2022-11-19T01:27:15.293Z,13.17
2022-11-19T01:32:17.270Z,13.17
2022-11-19T01:37:20.202Z,13.17
2022-11-19T01:42:46.992Z,12.27
2022-11-19T01:47:48.927Z,12.30
2022-11-19T01:52:51.250Z,11.27
2022-11-19T01:57:58.447Z,10.47
2022-11-19T02:03:00.962Z,11.53
2022-11-19T02:08:07.128Z,13.13
2022-11-19T02:13:34.564Z,12.17
2022-11-19T02:19:25.089Z,12.67
2022-11-19T02:24:44.764Z,14.60
2022-11-19T02:30:06.104Z,13.90
2022-11-19T02:35:17.689Z,14.83
2022-11-19T02:40:34.503Z,15.30
2022-11-19T02:45:41.570Z,16.80
2022-11-19T02:50:51.897Z,16.93
2022-11-19T02:56:11.961Z,16.63
2022-11-19T03:01:33.034Z,18.00
2022-11-19T03:06:35.241Z,16.77
2022-11-19T03:11:37.135Z,17.70
2022-11-19T03:16:42.142Z,16.60
2022-11-19T03:21:53.898Z,15.33
2022-11-19T03:27:01.487Z,16.23
2022-11-19T03:32:14.870Z,15.43
2022-11-19T03:37:19.155Z,14.63
2022-11-19T03:42:22.537Z,15.03
2022-11-19T03:47:33.814Z,15.87
2022-11-19T03:52:35.806Z,15.10
2022-11-19T03:57:37.906Z,14.33
2022-11-19T04:02:40.678Z,15.17
2022-11-19T04:07:42.592Z,14.10
2022-11-19T04:12:44.483Z,14.10
2022-11-19T04:17:46.422Z,14.03
2022-11-19T04:22:51.156Z,14.17
2022-11-19T04:27:53.190Z,14.53
2022-11-19T04:32:55.000Z,13.00
2022-11-19T04:37:56.970Z,13.40
2022-11-19T04:42:58.903Z,13.50
2022-11-19T04:48:00.691Z,13.80
2022-11-19T04:53:02.455Z,13.27
2022-11-19T04:58:04.322Z,13.10
2022-11-19T05:03:06.650Z,14.17
2022-11-19T05:08:08.643Z,12.93
2022-11-19T05:13:10.612Z,13.63
2022-11-19T05:18:13.418Z,13.80
2022-11-19T05:23:15.154Z,14.13
2022-11-19T05:28:17.183Z,12.97
2022-11-19T05:33:19.060Z,13.70
2022-11-19T05:38:20.859Z,14.27
2022-11-19T05:43:22.586Z,15.10
2022-11-19T05:48:24.319Z,14.50
2022-11-19T05:53:26.808Z,13.93
2022-11-19T05:58:28.686Z,14.73
2022-11-19T06:03:30.892Z,15.03
2022-11-19T06:08:32.780Z,15.53
2022-11-19T06:13:34.517Z,15.43
2022-11-19T06:18:36.398Z,15.13
2022-11-19T06:23:38.150Z,15.27
2022-11-19T06:28:40.026Z,16.03
2022-11-19T06:33:42.074Z,17.63
2022-11-19T06:38:44.060Z,18.53
2022-11-19T06:43:45.926Z,15.77
2022-11-19T06:48:47.813Z,13.23
2022-11-19T06:53:49.679Z,10.97
2022-11-19T06:58:51.588Z,7.60
2022-11-19T07:03:53.412Z,7.07
2022-11-19T07:08:55.177Z,7.57
2022-11-19T07:13:57.904Z,7.70
2022-11-19T07:19:01.480Z,7.80
2022-11-19T07:24:06.851Z,7.63
2022-11-19T07:29:11.393Z,7.50
2022-11-19T07:34:13.304Z,7.93
2022-11-19T07:39:16.076Z,8.37
2022-11-19T07:44:18.380Z,8.53
2022-11-19T07:49:21.527Z,8.03
2022-11-19T07:54:23.736Z,8.60
2022-11-19T07:59:27.033Z,8.80
2022-11-19T08:04:29.156Z,8.80
2022-11-19T08:09:31.078Z,8.60
2022-11-19T08:14:33.027Z,8.37
2022-11-19T08:19:35.087Z,8.43
2022-11-19T08:24:37.414Z,6.93
2022-11-19T08:29:39.158Z,5.97
2022-11-19T08:34:41.066Z,6.73
2022-11-19T08:39:43.172Z,6.80
2022-11-19T08:44:44.909Z,6.40
2022-11-19T08:49:46.813Z,6.10
2022-11-19T08:54:51.439Z,5.70
2022-11-19T08:59:53.274Z,5.50
2022-11-19T09:04:55.066Z,6.33
2022-11-19T09:09:57.000Z,7.30
2022-11-19T09:14:58.853Z,10.20
2022-11-19T09:20:00.869Z,11.60
2022-11-19T09:25:03.025Z,11.90
2022-11-19T09:30:06.620Z,11.37
2022-11-19T09:35:08.680Z,13.33
2022-11-19T09:40:18.684Z,15.10
2022-11-19T09:45:57.592Z,13.30
2022-11-19T09:51:12.918Z,13.43
2022-11-19T09:56:21.321Z,13.70
2022-11-19T10:01:23.345Z,13.50
2022-11-19T10:06:29.392Z,12.30
2022-11-19T10:11:56.043Z,13.83
2022-11-19T10:17:22.493Z,14.63
2022-11-19T10:22:39.141Z,14.97
2022-11-19T10:27:48.368Z,15.27
2022-11-19T10:32:55.636Z,17.00
2022-11-19T10:38:10.610Z,17.60
2022-11-19T10:43:38.686Z,16.50
2022-11-19T10:49:03.258Z,17.07
2022-11-19T10:54:14.651Z,16.00
2022-11-19T10:59:20.184Z,14.73
2022-11-19T11:04:27.616Z,15.87
2022-11-19T11:09:40.820Z,16.50
2022-11-19T11:14:54.078Z,16.83
2022-11-19T11:20:02.407Z,15.87
2022-11-19T11:25:12.093Z,15.07
2022-11-19T11:30:13.980Z,14.07
2022-11-19T11:35:33.881Z,14.43
2022-11-19T11:40:35.662Z,14.67
2022-11-19T11:45:38.150Z,14.83
2022-11-19T11:50:45.700Z,15.83
2022-11-19T11:55:57.291Z,14.90
2022-11-19T12:01:15.673Z,15.03
2022-11-19T12:06:19.981Z,13.97
2022-11-19T12:11:55.522Z,15.63
2022-11-19T12:17:45.132Z,13.80
2022-11-19T12:22:51.279Z,13.40
2022-11-19T12:28:05.126Z,14.30
2022-11-19T12:33:23.187Z,12.97
2022-11-19T12:38:56.702Z,12.50
2022-11-19T12:44:00.728Z,12.03
2022-11-19T12:49:27.495Z,10.10
2022-11-19T12:55:04.323Z,10.93
2022-11-19T13:00:11.685Z,13.53
2022-11-19T13:05:18.499Z,10.07
2022-11-19T13:10:35.124Z,9.47
2022-11-19T13:15:39.182Z,11.77
2022-11-19T13:20:47.831Z,9.53
2022-11-19T13:26:03.061Z,10.13
2022-11-19T13:31:12.663Z,9.03
2022-11-19T13:36:31.566Z,12.20
2022-11-19T13:41:59.052Z,12.07
2022-11-19T13:47:01.283Z,15.00
2022-11-19T13:52:13.327Z,15.37
2022-11-19T13:57:36.809Z,12.07
2022-11-19T14:03:16.300Z,12.37
2022-11-19T14:08:43.016Z,14.60
2022-11-19T14:14:08.179Z,15.17
2022-11-19T14:19:33.728Z,16.03
2022-11-19T14:24:54.049Z,14.10
2022-11-19T14:30:17.391Z,13.57
2022-11-19T14:35:25.346Z,14.33
2022-11-19T14:40:30.714Z,16.03
2022-11-19T14:45:32.627Z,15.70
2022-11-19T14:50:34.526Z,18.23
2022-11-19T14:55:36.618Z,16.20
2022-11-19T15:00:41.158Z,17.87
2022-11-19T15:05:46.183Z,17.40
2022-11-19T15:11:06.531Z,14.87
2022-11-19T15:16:13.167Z,15.33
2022-11-19T15:21:30.090Z,17.70
2022-11-19T15:26:53.609Z,17.80
2022-11-19T15:31:55.331Z,15.93
2022-11-19T15:37:03.353Z,18.37
2022-11-19T15:42:16.852Z,19.20
2022-11-19T15:47:24.267Z,14.37
2022-11-19T15:52:31.993Z,17.83
2022-11-19T15:57:34.835Z,16.83
2022-11-19T16:02:42.311Z,20.27
2022-11-19T16:07:46.516Z,15.83
2022-11-19T16:13:22.974Z,17.50
2022-11-19T16:18:24.733Z,16.43
2022-11-19T16:23:27.171Z,17.10
2022-11-19T16:28:32.923Z,15.13
2022-11-19T16:33:34.939Z,18.00
2022-11-19T16:38:39.054Z,16.80
2022-11-19T16:43:44.668Z,16.27
2022-11-19T16:48:49.683Z,17.27
2022-11-19T16:53:51.589Z,17.93
2022-11-19T16:58:58.101Z,19.63
2022-11-19T17:04:04.996Z,20.53
2022-11-19T17:09:07.083Z,18.20
2022-11-19T17:14:30.651Z,17.13
2022-11-19T17:19:34.357Z,16.03
2022-11-19T17:24:43.245Z,17.53
2022-11-19T17:29:45.383Z,20.17
2022-11-19T17:34:49.096Z,21.03
2022-11-19T17:39:51.005Z,15.90
2022-11-19T17:44:54.353Z,16.60
2022-11-19T17:49:56.549Z,19.17
2022-11-19T17:55:10.290Z,16.70
2022-11-19T18:00:12.828Z,15.80
2022-11-19T18:05:19.653Z,16.53
2022-11-19T18:10:22.604Z,15.00
2022-11-19T18:15:24.444Z,17.13
2022-11-19T18:20:26.736Z,18.10
2022-11-19T18:25:28.704Z,17.00
2022-11-19T18:30:30.702Z,21.10
2022-11-19T18:35:33.003Z,17.73
2022-11-19T18:40:35.684Z,16.13
2022-11-19T18:45:37.635Z,16.17
2022-11-19T18:50:39.547Z,16.67
2022-11-19T18:55:41.336Z,18.17
2022-11-19T19:00:43.440Z,17.17
2022-11-19T19:05:45.218Z,17.90
2022-11-19T19:10:47.087Z,21.17
2022-11-19T19:15:48.971Z,13.97
2022-11-19T19:20:51.021Z,15.53
2022-11-19T19:25:52.755Z,15.40
2022-11-19T19:30:58.764Z,17.13
2022-11-19T19:36:05.057Z,18.00
2022-11-19T19:41:11.392Z,18.77
2022-11-19T19:46:16.198Z,14.53
2022-11-19T19:51:19.083Z,16.27
2022-11-19T19:56:23.642Z,15.77
2022-11-19T20:01:28.061Z,16.00
2022-11-19T20:06:30.572Z,15.03
2022-11-19T20:11:32.409Z,14.10
2022-11-19T20:16:38.169Z,16.30
2022-11-19T20:21:40.072Z,17.03
2022-11-19T20:26:42.691Z,17.77
2022-11-19T20:31:49.865Z,17.03
2022-11-19T20:36:51.797Z,18.00
2022-11-19T20:42:12.318Z,19.40
2022-11-19T20:47:14.336Z,17.20
2022-11-19T20:52:17.883Z,16.87
2022-11-19T20:57:19.911Z,17.00
2022-11-19T21:02:22.371Z,17.83
2022-11-19T21:07:24.379Z,17.83
2022-11-19T21:12:26.308Z,19.03
2022-11-19T21:17:28.397Z,18.33
2022-11-19T21:22:30.266Z,20.10
2022-11-19T21:27:32.276Z,19.33
2022-11-19T21:32:34.207Z,20.67
2022-11-19T21:37:36.231Z,19.80
2022-11-19T21:42:38.275Z,17.77
2022-11-19T21:47:41.177Z,18.57
2022-11-19T21:52:43.208Z,18.53
2022-11-19T21:57:45.096Z,18.10
2022-11-19T22:02:47.139Z,17.57
2022-11-19T22:07:50.043Z,18.83
2022-11-19T22:12:51.896Z,19.47
2022-11-19T22:17:54.217Z,18.23
2022-11-19T22:22:58.129Z,18.17
2022-11-19T22:28:00.086Z,18.20
2022-11-19T22:33:02.038Z,19.20
2022-11-19T22:38:03.784Z,16.97
2022-11-19T22:43:05.582Z,17.23
2022-11-19T22:48:07.350Z,16.97
2022-11-19T22:53:09.752Z,17.60
2022-11-19T22:58:11.514Z,19.43
2022-11-19T23:03:14.120Z,18.30
2022-11-19T23:08:15.898Z,16.90
2022-11-19T23:13:33.071Z,17.83
2022-11-19T23:18:56.303Z,18.63
2022-11-19T23:24:01.998Z,18.43
2022-11-19T23:29:04.349Z,18.37
2022-11-19T23:34:07.023Z,18.97
2022-11-19T23:39:15.055Z,17.43
2022-11-19T23:44:16.991Z,18.83
2022-11-19T23:49:19.186Z,18.53
2022-11-19T23:54:21.480Z,17.63
2022-11-19T23:59:25.808Z,18.93
